FKYS/NSI METAR and TAF weather

Enter ICAO airport designator
Station Type Date Time Source
FKYS METAR 2019/05/21 20:00 UTC NOAA

FKYS 212000Z 19005KT 160V220 6000 -TSRA BKN006 FEW020CB 22/21 Q1017 NOSIG


Station Type Date Time Source
FKYS Decoded METAR 2019/05/21 20:00 UTC NOAA

Yaounde, Cameroon (FKYS) 03-50N 011-31E 760M
May 21, 2019 - 04:00 PM EDT / 2019.05.21 2000 UTC
Wind: from the S (190 degrees) at 6 MPH (5 KT) (direction variable):0
Visibility: 3 mile(s):0
Sky conditions: mostly cloudy
Weather: light rain with thunder; Cumulonimbus clouds observed
Temperature: 71 F (22 C)
Dew Point: 69 F (21 C)
Relative Humidity: 94%
Pressure (altimeter): 30.03 in. Hg (1017 hPa)
ob: FKYS 212000Z 19005KT 160V220 6000 -TSRA BKN006 FEW020CB 22/21 Q1017 NOSIG
cycle: 20

Station Type Date Time Source
FKYS TAF 2019/05/21 18:03 UTC NOAA

TAF FKYS 211700Z 2118/2218 VRB06KT 9999 TS BKN008 FEW016CB
TEMPO 2118/2202 4000 TSRA
BECMG 2202/2206 NSW BKN013

Example: see airport list